sensor_id;sensor_type;location;lat;lon;timestamp;pressure;altitude;pressure_sealevel;temperature;humidity
4398;BME280;2213;49.720;7.296;2023-11-21T00:00:10;97325.88;;;9.98;100.00
4398;BME280;2213;49.720;7.296;2023-11-21T00:02:40;97326.47;;;10.00;100.00
4398;BME280;2213;49.720;7.296;2023-11-21T00:05:12;97317.81;;;10.00;100.00
4398;BME280;2213;49.720;7.296;2023-11-21T00:07:43;97326.88;;;9.97;100.00
4398;BME280;2213;49.720;7.296;2023-11-21T00:10:15;97325.06;;;9.98;100.00
4398;BME280;2213;49.720;7.296;2023-11-21T00:12:44;97323.44;;;9.97;100.00
4398;BME280;2213;49.720;7.296;2023-11-21T00:15:15;97318.22;;;9.97;100.00
4398;BME280;2213;49.720;7.296;2023-11-21T00:17:43;97322.44;;;9.98;100.00
4398;BME280;2213;49.720;7.296;2023-11-21T00:20:13;97325.66;;;10.00;100.00
4398;BME280;2213;49.720;7.296;2023-11-21T00:22:42;97334.69;;;9.97;100.00
4398;BME280;2213;49.720;7.296;2023-11-21T00:25:11;97337.31;;;9.97;100.00
4398;BME280;2213;49.720;7.296;2023-11-21T00:27:42;97337.53;;;9.96;100.00
4398;BME280;2213;49.720;7.296;2023-11-21T00:30:13;97334.53;;;9.99;100.00
4398;BME280;2213;49.720;7.296;2023-11-21T00:32:41;97341.72;;;9.97;100.00
4398;BME280;2213;49.720;7.296;2023-11-21T00:35:10;97339.75;;;9.99;100.00
4398;BME280;2213;49.720;7.296;2023-11-21T00:37:40;97332.72;;;9.99;100.00
4398;BME280;2213;49.720;7.296;2023-11-21T00:40:11;97337.13;;;9.99;100.00
4398;BME280;2213;49.720;7.296;2023-11-21T00:42:40;97334.69;;;9.97;100.00
4398;BME280;2213;49.720;7.296;2023-11-21T00:45:09;97331.09;;;9.98;100.00
4398;BME280;2213;49.720;7.296;2023-11-21T00:47:38;97337.13;;;9.99;100.00
4398;BME280;2213;49.720;7.296;2023-11-21T00:50:08;97339.75;;;9.99;100.00
4398;BME280;2213;49.720;7.296;2023-11-21T00:52:37;97339.75;;;9.99;100.00
4398;BME280;2213;49.720;7.296;2023-11-21T00:55:08;97342.94;;;10.01;100.00
4398;BME280;2213;49.720;7.296;2023-11-21T00:57:37;97343.94;;;10.00;100.00
4398;BME280;2213;49.720;7.296;2023-11-21T01:00:07;97349.78;;;10.02;100.00
4398;BME280;2213;49.720;7.296;2023-11-21T01:02:40;97350.78;;;10.01;100.00
4398;BME280;2213;49.720;7.296;2023-11-21T01:05:10;97356.00;;;10.01;100.00
4398;BME280;2213;49.720;7.296;2023-11-21T01:07:39;97358.63;;;10.01;100.00
4398;BME280;2213;49.720;7.296;2023-11-21T01:10:09;97357.63;;;10.02;100.00
4398;BME280;2213;49.720;7.296;2023-11-21T01:12:38;97355.00;;;10.02;100.00
4398;BME280;2213;49.720;7.296;2023-11-21T01:15:07;97360.63;;;9.99;100.00
4398;BME280;2213;49.720;7.296;2023-11-21T01:17:39;97368.47;;;9.99;100.00
4398;BME280;2213;49.720;7.296;2023-11-21T01:20:09;97360.00;;;9.97;100.00
4398;BME280;2213;49.720;7.296;2023-11-21T01:22:41;97374.09;;;9.96;100.00
4398;BME280;2213;49.720;7.296;2023-11-21T01:25:11;97370.69;;;9.95;100.00
4398;BME280;2213;49.720;7.296;2023-11-21T01:27:41;97368.84;;;9.89;100.00
4398;BME280;2213;49.720;7.296;2023-11-21T01:30:11;97368.84;;;9.89;100.00
4398;BME280;2213;49.720;7.296;2023-11-21T01:32:39;97369.47;;;9.91;100.00
4398;BME280;2213;49.720;7.296;2023-11-21T01:35:08;97376.88;;;9.88;100.00
4398;BME280;2213;49.720;7.296;2023-11-21T01:37:38;97370.84;;;9.87;100.00
4398;BME280;2213;49.720;7.296;2023-11-21T01:40:08;97380.09;;;9.90;100.00
4398;BME280;2213;49.720;7.296;2023-11-21T01:42:43;97372.88;;;9.92;100.00
4398;BME280;2213;49.720;7.296;2023-11-21T01:45:14;97377.28;;;9.91;100.00
4398;BME280;2213;49.720;7.296;2023-11-21T01:47:45;97377.09;;;9.93;100.00
4398;BME280;2213;49.720;7.296;2023-11-21T01:50:16;97377.09;;;9.93;100.00
4398;BME280;2213;49.720;7.296;2023-11-21T01:52:46;97380.91;;;9.90;100.00
4398;BME280;2213;49.720;7.296;2023-11-21T01:55:17;97375.28;;;9.87;100.00
4398;BME280;2213;49.720;7.296;2023-11-21T01:57:57;97378.91;;;9.92;100.00
4398;BME280;2213;49.720;7.296;2023-11-21T02:00:26;97386.94;;;9.91;100.00
4398;BME280;2213;49.720;7.296;2023-11-21T02:02:56;97387.34;;;9.94;100.00
4398;BME280;2213;49.720;7.296;2023-11-21T02:05:26;97383.72;;;9.95;100.00
4398;BME280;2213;49.720;7.296;2023-11-21T02:07:56;97387.94;;;9.96;100.00
4398;BME280;2213;49.720;7.296;2023-11-21T02:10:25;97386.34;;;9.95;100.00
4398;BME280;2213;49.720;7.296;2023-11-21T02:12:55;97392.97;;;9.98;100.00
4398;BME280;2213;49.720;7.296;2023-11-21T02:15:25;97390.53;;;9.96;100.00
4398;BME280;2213;49.720;7.296;2023-11-21T02:17:56;97394.59;;;9.99;100.00
4398;BME280;2213;49.720;7.296;2023-11-21T02:20:26;97401.41;;;10.00;100.00
4398;BME280;2213;49.720;7.296;2023-11-21T02:22:58;97396.56;;;9.97;100.00
4398;BME280;2213;49.720;7.296;2023-11-21T02:25:29;97392.56;;;9.94;100.00
4398;BME280;2213;49.720;7.296;2023-11-21T02:28:00;97402.41;;;9.92;100.00
4398;BME280;2213;49.720;7.296;2023-11-21T02:30:30;97403.00;;;9.94;100.00
4398;BME280;2213;49.720;7.296;2023-11-21T02:33:00;97401.78;;;9.97;100.00
4398;BME280;2213;49.720;7.296;2023-11-21T02:35:29;97404.63;;;9.95;100.00
4398;BME280;2213;49.720;7.296;2023-11-21T02:38:00;97402.59;;;9.97;100.00
4398;BME280;2213;49.720;7.296;2023-11-21T02:40:29;97412.25;;;9.97;100.00
4398;BME280;2213;49.720;7.296;2023-11-21T02:42:58;97413.28;;;9.96;100.00
4398;BME280;2213;49.720;7.296;2023-11-21T02:45:27;97420.28;;;9.95;100.00
4398;BME280;2213;49.720;7.296;2023-11-21T02:47:56;97419.09;;;9.98;100.00
4398;BME280;2213;49.720;7.296;2023-11-21T02:50:25;97415.47;;;9.99;100.00
4398;BME280;2213;49.720;7.296;2023-11-21T02:52:55;97424.91;;;9.93;100.00
4398;BME280;2213;49.720;7.296;2023-11-21T02:55:26;97421.06;;;9.89;100.00
4398;BME280;2213;49.720;7.296;2023-11-21T02:57:55;97420.06;;;9.90;100.00
4398;BME280;2213;49.720;7.296;2023-11-21T03:00:24;97423.09;;;9.87;100.00
4398;BME280;2213;49.720;7.296;2023-11-21T03:02:54;97420.28;;;9.89;100.00
4398;BME280;2213;49.720;7.296;2023-11-21T03:05:23;97430.50;;;9.84;100.00
4398;BME280;2213;49.720;7.296;2023-11-21T03:07:51;97428.06;;;9.82;100.00
4398;BME280;2213;49.720;7.296;2023-11-21T03:10:20;97433.94;;;9.84;100.00
4398;BME280;2213;49.720;7.296;2023-11-21T03:12:50;97443.56;;;9.84;100.00
4398;BME280;2213;49.720;7.296;2023-11-21T03:15:19;97442.16;;;9.81;100.00
4398;BME280;2213;49.720;7.296;2023-11-21T03:17:48;97446.75;;;9.79;100.00
4398;BME280;2213;49.720;7.296;2023-11-21T03:20:17;97451.19;;;9.79;100.00
4398;BME280;2213;49.720;7.296;2023-11-21T03:22:46;97446.75;;;9.79;100.00
4398;BME280;2213;49.720;7.296;2023-11-21T03:25:15;97451.19;;;9.79;100.00
4398;BME280;2213;49.720;7.296;2023-11-21T03:27:45;97449.56;;;9.78;100.00
4398;BME280;2213;49.720;7.296;2023-11-21T03:30:15;97457.59;;;9.76;100.00
4398;BME280;2213;49.720;7.296;2023-11-21T03:32:44;97466.06;;;9.78;100.00
4398;BME280;2213;49.720;7.296;2023-11-21T03:35:13;97462.00;;;9.69;100.00
4398;BME280;2213;49.720;7.296;2023-11-21T03:37:41;97472.81;;;9.66;100.00
4398;BME280;2213;49.720;7.296;2023-11-21T03:40:11;97470.00;;;9.61;100.00
4398;BME280;2213;49.720;7.296;2023-11-21T03:42:41;97465.19;;;9.65;100.00
4398;BME280;2213;49.720;7.296;2023-11-21T03:45:10;97462.97;;;9.61;100.00
4398;BME280;2213;49.720;7.296;2023-11-21T03:47:42;97467.19;;;9.63;100.00
4398;BME280;2213;49.720;7.296;2023-11-21T03:50:11;97467.41;;;9.61;100.00
4398;BME280;2213;49.720;7.296;2023-11-21T03:52:39;97469.41;;;9.66;100.00
4398;BME280;2213;49.720;7.296;2023-11-21T03:55:09;97485.25;;;9.57;100.00
4398;BME280;2213;49.720;7.296;2023-11-21T03:57:37;97480.44;;;9.61;100.00
4398;BME280;2213;49.720;7.296;2023-11-21T04:00:08;97482.84;;;9.63;100.00
4398;BME280;2213;49.720;7.296;2023-11-21T04:02:37;97485.28;;;9.64;100.00
4398;BME280;2213;49.720;7.296;2023-11-21T04:05:08;97488.03;;;9.56;100.00
4398;BME280;2213;49.720;7.296;2023-11-21T04:07:37;97491.06;;;9.59;100.00
4398;BME280;2213;49.720;7.296;2023-11-21T04:10:08;97506.97;;;9.65;100.00
4398;BME280;2213;49.720;7.296;2023-11-21T04:12:39;97499.13;;;9.65;100.00
4398;BME280;2213;49.720;7.296;2023-11-21T04:15:10;97502.75;;;9.64;100.00
4398;BME280;2213;49.720;7.296;2023-11-21T04:17:40;97505.75;;;9.60;100.00
4398;BME280;2213;49.720;7.296;2023-11-21T04:20:14;97508.13;;;9.62;100.00
4398;BME280;2213;49.720;7.296;2023-11-21T04:22:44;97515.97;;;9.62;100.00
4398;BME280;2213;49.720;7.296;2023-11-21T04:25:15;97522.22;;;9.61;100.00
4398;BME280;2213;49.720;7.296;2023-11-21T04:27:45;97524.00;;;9.60;100.00
4398;BME280;2213;49.720;7.296;2023-11-21T04:30:14;97535.47;;;9.66;100.00
4398;BME280;2213;49.720;7.296;2023-11-21T04:32:43;97528.44;;;9.67;100.00
4398;BME280;2213;49.720;7.296;2023-11-21T04:35:13;97521.63;;;9.66;100.00
4398;BME280;2213;49.720;7.296;2023-11-21T04:37:42;97526.84;;;9.66;100.00
4398;BME280;2213;49.720;7.296;2023-11-21T04:40:11;97530.06;;;9.68;100.00
4398;BME280;2213;49.720;7.296;2023-11-21T04:42:40;97529.66;;;9.64;100.00
4398;BME280;2213;49.720;7.296;2023-11-21T04:45:09;97539.88;;;9.66;100.00
4398;BME280;2213;49.720;7.296;2023-11-21T04:47:40;97540.91;;;9.65;100.00
4398;BME280;2213;49.720;7.296;2023-11-21T04:50:10;97542.88;;;9.63;100.00
4398;BME280;2213;49.720;7.296;2023-11-21T04:52:40;97544.69;;;9.62;100.00
4398;BME280;2213;49.720;7.296;2023-11-21T04:55:08;97549.09;;;9.61;100.00
4398;BME280;2213;49.720;7.296;2023-11-21T04:57:38;97549.72;;;9.64;100.00
4398;BME280;2213;49.720;7.296;2023-11-21T05:00:10;97551.91;;;9.60;100.00
4398;BME280;2213;49.720;7.296;2023-11-21T05:02:40;97555.13;;;9.62;100.00
4398;BME280;2213;49.720;7.296;2023-11-21T05:05:11;97557.13;;;9.60;100.00
4398;BME280;2213;49.720;7.296;2023-11-21T05:07:43;97550.66;;;9.49;100.00
4398;BME280;2213;49.720;7.296;2023-11-21T05:10:11;97561.66;;;9.45;100.00
4398;BME280;2213;49.720;7.296;2023-11-21T05:12:44;97564.31;;;9.51;100.00
4398;BME280;2213;49.720;7.296;2023-11-21T05:15:15;97559.09;;;9.51;100.00
4398;BME280;2213;49.720;7.296;2023-11-21T05:17:45;97568.31;;;9.47;100.00
4398;BME280;2213;49.720;7.296;2023-11-21T05:20:15;97566.69;;;9.46;100.00
4398;BME280;2213;49.720;7.296;2023-11-21T05:22:50;97575.94;;;9.49;100.00
4398;BME280;2213;49.720;7.296;2023-11-21T05:25:18;97581.97;;;9.49;100.00
4398;BME280;2213;49.720;7.296;2023-11-21T05:27:47;97578.38;;;9.50;100.00
4398;BME280;2213;49.720;7.296;2023-11-21T05:30:16;97591.16;;;9.45;100.00
4398;BME280;2213;49.720;7.296;2023-11-21T05:32:44;97598.00;;;9.46;100.00
4398;BME280;2213;49.720;7.296;2023-11-21T05:35:14;97591.75;;;9.41;100.00
4398;BME280;2213;49.720;7.296;2023-11-21T05:37:44;97594.00;;;9.44;100.00
4398;BME280;2213;49.720;7.296;2023-11-21T05:40:16;97596.41;;;9.45;100.00
4398;BME280;2213;49.720;7.296;2023-11-21T05:42:45;97599.63;;;9.47;100.00
4398;BME280;2213;49.720;7.296;2023-11-21T05:45:14;97601.59;;;9.45;100.00
4398;BME280;2213;49.720;7.296;2023-11-21T05:47:49;97598.19;;;9.45;100.00
4398;BME280;2213;49.720;7.296;2023-11-21T05:50:17;97596.41;;;9.45;100.00
4398;BME280;2213;49.720;7.296;2023-11-21T05:52:47;97601.59;;;9.45;100.00
4398;BME280;2213;49.720;7.296;2023-11-21T05:55:18;97605.22;;;9.44;100.00
4398;BME280;2213;49.720;7.296;2023-11-21T05:57:48;97598.56;;;9.42;100.00
4398;BME280;2213;49.720;7.296;2023-11-21T06:00:17;97601.75;;;9.37;100.00
4398;BME280;2213;49.720;7.296;2023-11-21T06:02:49;97604.34;;;9.37;100.00
4398;BME280;2213;49.720;7.296;2023-11-21T06:05:22;97604.78;;;9.41;100.00
4398;BME280;2213;49.720;7.296;2023-11-21T06:07:53;97613.19;;;9.36;100.00
4398;BME280;2213;49.720;7.296;2023-11-21T06:10:25;97608.38;;;9.33;100.00
4398;BME280;2213;49.720;7.296;2023-11-21T06:12:54;97611.41;;;9.37;100.00
4398;BME280;2213;49.720;7.296;2023-11-21T06:15:26;97618.41;;;9.36;100.00
4398;BME280;2213;49.720;7.296;2023-11-21T06:17:55;97625.63;;;9.34;100.00
4398;BME280;2213;49.720;7.296;2023-11-21T06:20:23;97618.59;;;9.35;100.00
4398;BME280;2213;49.720;7.296;2023-11-21T06:22:52;97630.22;;;9.32;100.00
4398;BME280;2213;49.720;7.296;2023-11-21T06:25:21;97633.66;;;9.33;100.00
4398;BME280;2213;49.720;7.296;2023-11-21T06:27:51;97634.47;;;9.33;100.00
4398;BME280;2213;49.720;7.296;2023-11-21T06:30:21;97641.66;;;9.31;100.00
4398;BME280;2213;49.720;7.296;2023-11-21T06:32:51;97651.28;;;9.31;100.00
4398;BME280;2213;49.720;7.296;2023-11-21T06:35:20;97660.06;;;9.23;100.00
4398;BME280;2213;49.720;7.296;2023-11-21T06:37:49;97655.25;;;9.27;100.00
4398;BME280;2213;49.720;7.296;2023-11-21T06:40:19;97668.94;;;9.29;100.00
4398;BME280;2213;49.720;7.296;2023-11-21T06:42:48;97664.09;;;9.26;100.00
4398;BME280;2213;49.720;7.296;2023-11-21T06:45:19;97668.13;;;9.28;100.00
4398;BME280;2213;49.720;7.296;2023-11-21T06:47:48;97667.69;;;9.25;100.00
4398;BME280;2213;49.720;7.296;2023-11-21T06:50:18;97665.28;;;9.23;100.00
4398;BME280;2213;49.720;7.296;2023-11-21T06:52:46;97675.72;;;9.23;100.00
4398;BME280;2213;49.720;7.296;2023-11-21T06:55:16;97669.31;;;9.26;100.00
4398;BME280;2213;49.720;7.296;2023-11-21T06:57:44;97684.75;;;9.27;100.00
4398;BME280;2213;49.720;7.296;2023-11-21T07:00:18;97693.22;;;9.29;100.00
4398;BME280;2213;49.720;7.296;2023-11-21T07:02:47;97696.66;;;9.30;100.00
4398;BME280;2213;49.720;7.296;2023-11-21T07:05:17;97700.66;;;9.32;100.00
4398;BME280;2213;49.720;7.296;2023-11-21T07:07:50;97703.66;;;9.29;100.00
4398;BME280;2213;49.720;7.296;2023-11-21T07:10:21;97711.28;;;9.31;100.00
4398;BME280;2213;49.720;7.296;2023-11-21T07:12:50;97716.31;;;9.32;100.00
4398;BME280;2213;49.720;7.296;2023-11-21T07:15:20;97712.09;;;9.31;100.00
4398;BME280;2213;49.720;7.296;2023-11-21T07:17:49;97721.53;;;9.32;100.00
4398;BME280;2213;49.720;7.296;2023-11-21T07:20:21;97728.00;;;9.36;100.00
4398;BME280;2213;49.720;7.296;2023-11-21T07:22:50;97725.53;;;9.28;100.00
4398;BME280;2213;49.720;7.296;2023-11-21T07:25:19;97734.97;;;9.29;100.00
4398;BME280;2213;49.720;7.296;2023-11-21T07:27:49;97742.41;;;9.32;100.00
4398;BME280;2213;49.720;7.296;2023-11-21T07:30:19;97752.59;;;9.27;100.00
4398;BME280;2213;49.720;7.296;2023-11-21T07:32:49;97760.78;;;9.24;100.00
4398;BME280;2213;49.720;7.296;2023-11-21T07:35:18;97756.22;;;9.26;100.00
4398;BME280;2213;49.720;7.296;2023-11-21T07:37:47;97758.44;;;9.29;100.00
4398;BME280;2213;49.720;7.296;2023-11-21T07:40:16;97763.28;;;9.32;100.00
4398;BME280;2213;49.720;7.296;2023-11-21T07:42:45;97770.03;;;9.27;100.00
4398;BME280;2213;49.720;7.296;2023-11-21T07:45:13;97769.25;;;9.26;100.00
4398;BME280;2213;49.720;7.296;2023-11-21T07:47:44;97771.28;;;9.31;100.00
4398;BME280;2213;49.720;7.296;2023-11-21T07:50:12;97772.91;;;9.32;100.00
4398;BME280;2213;49.720;7.296;2023-11-21T07:52:41;97778.31;;;9.30;100.00
4398;BME280;2213;49.720;7.296;2023-11-21T07:55:10;97776.56;;;9.37;100.00
4398;BME280;2213;49.720;7.296;2023-11-21T07:57:39;97775.59;;;9.38;100.00
4398;BME280;2213;49.720;7.296;2023-11-21T08:00:09;97777.22;;;9.39;100.00
4398;BME280;2213;49.720;7.296;2023-11-21T08:02:39;97783.84;;;9.42;100.00
4398;BME280;2213;49.720;7.296;2023-11-21T08:05:12;97794.72;;;9.45;100.00
4398;BME280;2213;49.720;7.296;2023-11-21T08:07:51;97799.13;;;9.45;100.00
4398;BME280;2213;49.720;7.296;2023-11-21T08:10:20;97806.78;;;9.46;100.00
4398;BME280;2213;49.720;7.296;2023-11-21T08:12:49;97804.19;;;9.46;100.00
4398;BME280;2213;49.720;7.296;2023-11-21T08:15:19;97805.53;;;9.42;100.00
4398;BME280;2213;49.720;7.296;2023-11-21T08:17:48;97812.00;;;9.46;100.00
4398;BME280;2213;49.720;7.296;2023-11-21T08:20:18;97822.44;;;9.46;100.00
4398;BME280;2213;49.720;7.296;2023-11-21T08:22:47;97825.28;;;9.51;100.00
4398;BME280;2213;49.720;7.296;2023-11-21T08:25:16;97825.28;;;9.51;100.00
4398;BME280;2213;49.720;7.296;2023-11-21T08:27:47;97833.41;;;9.56;100.00
4398;BME280;2213;49.720;7.296;2023-11-21T08:30:17;97836.38;;;9.53;100.00
4398;BME280;2213;49.720;7.296;2023-11-21T08:32:47;97838.63;;;9.56;100.00
4398;BME280;2213;49.720;7.296;2023-11-21T08:35:18;97839.81;;;9.54;100.00
4398;BME280;2213;49.720;7.296;2023-11-21T08:37:47;97835.19;;;9.56;100.00
4398;BME280;2213;49.720;7.296;2023-11-21T08:40:15;97837.25;;;9.60;100.00
4398;BME280;2213;49.720;7.296;2023-11-21T08:42:44;97836.25;;;9.61;100.00
4398;BME280;2213;49.720;7.296;2023-11-21T08:45:14;97839.50;;;9.64;100.00
4398;BME280;2213;49.720;7.296;2023-11-21T08:47:48;97835.25;;;9.63;100.00
4398;BME280;2213;49.720;7.296;2023-11-21T08:50:19;97845.09;;;9.60;100.00
4398;BME280;2213;49.720;7.296;2023-11-21T08:52:48;97840.25;;;9.57;100.00
4398;BME280;2213;49.720;7.296;2023-11-21T08:55:18;97842.41;;;9.54;100.00
4398;BME280;2213;49.720;7.296;2023-11-21T08:57:47;97837.75;;;9.49;100.00
4398;BME280;2213;49.720;7.296;2023-11-21T09:00:16;97846.81;;;9.53;100.00
4398;BME280;2213;49.720;7.296;2023-11-21T09:02:49;97847.69;;;9.60;100.00
4398;BME280;2213;49.720;7.296;2023-11-21T09:05:19;97837.06;;;9.62;100.00
4398;BME280;2213;49.720;7.296;2023-11-21T09:07:48;97847.31;;;9.64;100.00
4398;BME280;2213;49.720;7.296;2023-11-21T09:10:17;97852.34;;;9.65;100.00
4398;BME280;2213;49.720;7.296;2023-11-21T09:12:46;97853.16;;;9.66;100.00
4398;BME280;2213;49.720;7.296;2023-11-21T09:15:15;97850.38;;;9.67;100.00
4398;BME280;2213;49.720;7.296;2023-11-21T09:17:43;97852.00;;;9.68;100.00
4398;BME280;2213;49.720;7.296;2023-11-21T09:20:13;97857.81;;;9.70;100.00
4398;BME280;2213;49.720;7.296;2023-11-21T09:22:43;97861.84;;;9.73;100.00
4398;BME280;2213;49.720;7.296;2023-11-21T09:25:14;97863.31;;;9.75;100.00
4398;BME280;2213;49.720;7.296;2023-11-21T09:27:43;97872.19;;;9.81;100.00
4398;BME280;2213;49.720;7.296;2023-11-21T09:30:13;97872.19;;;9.81;100.00
4398;BME280;2213;49.720;7.296;2023-11-21T09:32:42;97878.66;;;9.85;100.00
4398;BME280;2213;49.720;7.296;2023-11-21T09:35:13;97878.66;;;9.85;100.00
4398;BME280;2213;49.720;7.296;2023-11-21T09:37:44;97883.13;;;9.91;100.00
4398;BME280;2213;49.720;7.296;2023-11-21T09:40:22;97887.81;;;9.95;100.00
4398;BME280;2213;49.720;7.296;2023-11-21T09:42:55;97893.41;;;9.92;100.00
4398;BME280;2213;49.720;7.296;2023-11-21T09:45:27;97888.91;;;9.86;100.00
4398;BME280;2213;49.720;7.296;2023-11-21T09:47:57;97903.41;;;9.89;100.00
4398;BME280;2213;49.720;7.296;2023-11-21T09:50:26;97909.25;;;9.91;100.00
4398;BME280;2213;49.720;7.296;2023-11-21T09:53:05;97916.72;;;9.94;100.00
4398;BME280;2213;49.720;7.296;2023-11-21T09:55:42;97913.13;;;9.95;100.00
4398;BME280;2213;49.720;7.296;2023-11-21T09:58:11;97916.53;;;9.95;100.00
4398;BME280;2213;49.720;7.296;2023-11-21T10:00:44;97921.13;;;9.93;100.00
4398;BME280;2213;49.720;7.296;2023-11-21T10:03:14;97926.19;;;9.95;100.00
4398;BME280;2213;49.720;7.296;2023-11-21T10:05:44;97926.78;;;9.97;100.00
4398;BME280;2213;49.720;7.296;2023-11-21T10:08:15;97934.25;;;10.00;100.00
4398;BME280;2213;49.720;7.296;2023-11-21T10:10:46;97932.50;;;10.07;100.00
4398;BME280;2213;49.720;7.296;2023-11-21T10:13:18;97928.31;;;10.06;100.00
4398;BME280;2213;49.720;7.296;2023-11-21T10:15:50;97931.91;;;10.05;100.00
4398;BME280;2213;49.720;7.296;2023-11-21T10:18:20;97937.13;;;10.05;100.00
4398;BME280;2213;49.720;7.296;2023-11-21T10:20:54;97936.06;;;9.99;100.00
4398;BME280;2213;49.720;7.296;2023-11-21T10:23:25;97938.47;;;10.01;100.00
4398;BME280;2213;49.720;7.296;2023-11-21T10:25:54;97939.75;;;10.05;100.00
4398;BME280;2213;49.720;7.296;2023-11-21T10:28:35;97944.41;;;10.09;100.00
4398;BME280;2213;49.720;7.296;2023-11-21T10:31:07;97948.81;;;10.09;100.00
4398;BME280;2213;49.720;7.296;2023-11-21T10:33:36;97951.00;;;10.05;100.00
4398;BME280;2213;49.720;7.296;2023-11-21T10:36:06;97951.00;;;10.05;100.00
4398;BME280;2213;49.720;7.296;2023-11-21T10:38:42;97943.41;;;10.10;100.00
4398;BME280;2213;49.720;7.296;2023-11-21T10:41:18;97952.03;;;10.11;100.00
4398;BME280;2213;49.720;7.296;2023-11-21T10:43:47;97949.44;;;10.11;100.00
4398;BME280;2213;49.720;7.296;2023-11-21T10:46:16;97944.69;;;10.15;100.00
4398;BME280;2213;49.720;7.296;2023-11-21T10:48:44;97948.91;;;10.16;100.00
4398;BME280;2213;49.720;7.296;2023-11-21T10:51:13;97950.72;;;10.15;100.00
4398;BME280;2213;49.720;7.296;2023-11-21T10:53:44;97948.38;;;10.20;100.00
4398;BME280;2213;49.720;7.296;2023-11-21T10:56:15;97948.97;;;10.22;100.00
4398;BME280;2213;49.720;7.296;2023-11-21T10:58:48;97940.97;;;10.24;100.00
4398;BME280;2213;49.720;7.296;2023-11-21T11:01:19;97945.00;;;10.26;100.00
4398;BME280;2213;49.720;7.296;2023-11-21T11:03:52;97944.75;;;10.21;100.00
4398;BME280;2213;49.720;7.296;2023-11-21T11:06:26;97942.13;;;10.21;100.00
4398;BME280;2213;49.720;7.296;2023-11-21T11:08:58;97946.78;;;10.26;100.00
4398;BME280;2213;49.720;7.296;2023-11-21T11:11:30;97945.81;;;10.27;100.00
4398;BME280;2213;49.720;7.296;2023-11-21T11:13:59;97945.44;;;10.30;100.00
4398;BME280;2213;49.720;7.296;2023-11-21T11:16:29;97935.03;;;10.36;100.00
4398;BME280;2213;49.720;7.296;2023-11-21T11:18:57;97943.47;;;10.38;100.00
4398;BME280;2213;49.720;7.296;2023-11-21T11:21:43;97941.88;;;10.37;100.00
4398;BME280;2213;49.720;7.296;2023-11-21T11:24:40;97943.75;;;10.43;100.00
4398;BME280;2213;49.720;7.296;2023-11-21T11:27:25;97947.59;;;10.47;100.00
4398;BME280;2213;49.720;7.296;2023-11-21T11:30:13;97943.97;;;10.48;100.00
4398;BME280;2213;49.720;7.296;2023-11-21T11:32:58;97947.59;;;10.47;100.00
4398;BME280;2213;49.720;7.296;2023-11-21T11:35:51;97949.06;;;10.56;100.00
4398;BME280;2213;49.720;7.296;2023-11-21T11:38:22;97949.44;;;10.53;100.00
4398;BME280;2213;49.720;7.296;2023-11-21T11:40:54;97944.41;;;10.52;100.00
4398;BME280;2213;49.720;7.296;2023-11-21T11:43:26;97943.63;;;10.51;100.00
4398;BME280;2213;49.720;7.296;2023-11-21T11:45:56;97944.66;;;10.57;100.00
4398;BME280;2213;49.720;7.296;2023-11-21T11:48:26;97935.63;;;10.59;100.00
4398;BME280;2213;49.720;7.296;2023-11-21T11:51:03;97934.41;;;10.62;100.00
4398;BME280;2213;49.720;7.296;2023-11-21T11:53:36;97937.28;;;10.67;100.00
4398;BME280;2213;49.720;7.296;2023-11-21T11:56:28;97938.09;;;10.68;100.00
4398;BME280;2213;49.720;7.296;2023-11-21T11:59:02;97939.72;;;10.69;100.00
4398;BME280;2213;49.720;7.296;2023-11-21T12:01:33;97952.22;;;10.73;100.00
4398;BME280;2213;49.720;7.296;2023-11-21T12:04:24;97946.97;;;10.73;100.00
4398;BME280;2213;49.720;7.296;2023-11-21T12:07:03;97953.41;;;10.71;100.00
4398;BME280;2213;49.720;7.296;2023-11-21T12:09:32;97958.81;;;10.69;100.00
4398;BME280;2213;49.720;7.296;2023-11-21T12:12:03;97962.06;;;10.71;100.00
4398;BME280;2213;49.720;7.296;2023-11-21T12:14:33;97959.03;;;10.68;100.00
4398;BME280;2213;49.720;7.296;2023-11-21T12:17:04;97970.91;;;10.70;100.00
4398;BME280;2213;49.720;7.296;2023-11-21T12:19:33;97964.19;;;10.61;100.00
4398;BME280;2213;49.720;7.296;2023-11-21T12:22:02;97971.47;;;10.66;100.00
4398;BME280;2213;49.720;7.296;2023-11-21T12:24:31;97969.66;;;10.66;100.00
4398;BME280;2213;49.720;7.296;2023-11-21T12:27:01;97983.31;;;10.62;100.00
4398;BME280;2213;49.720;7.296;2023-11-21T12:29:30;97979.31;;;10.66;100.00
4398;BME280;2213;49.720;7.296;2023-11-21T12:32:00;97986.91;;;10.60;100.00
4398;BME280;2213;49.720;7.296;2023-11-21T12:34:29;97982.88;;;10.58;100.00
4398;BME280;2213;49.720;7.296;2023-11-21T12:36:59;97983.06;;;10.56;100.00
4398;BME280;2213;49.720;7.296;2023-11-21T12:39:27;97985.44;;;10.51;100.00
4398;BME280;2213;49.720;7.296;2023-11-21T12:41:56;97992.28;;;10.52;100.00
4398;BME280;2213;49.720;7.296;2023-11-21T12:44:27;97988.66;;;10.53;100.00
4398;BME280;2213;49.720;7.296;2023-11-21T12:46:56;97991.28;;;10.53;100.00
4398;BME280;2213;49.720;7.296;2023-11-21T12:49:25;97989.88;;;10.51;100.00
4398;BME280;2213;49.720;7.296;2023-11-21T12:51:55;97989.88;;;10.51;100.00
4398;BME280;2213;49.720;7.296;2023-11-21T12:54:24;97995.53;;;10.54;100.00
4398;BME280;2213;49.720;7.296;2023-11-21T12:56:53;97993.84;;;10.47;100.00
4398;BME280;2213;49.720;7.296;2023-11-21T12:59:22;98000.69;;;10.48;100.00
4398;BME280;2213;49.720;7.296;2023-11-21T13:01:54;97998.88;;;10.48;100.00
4398;BME280;2213;49.720;7.296;2023-11-21T13:04:31;98002.66;;;10.46;100.00
4398;BME280;2213;49.720;7.296;2023-11-21T13:07:05;98007.09;;;10.45;100.00
4398;BME280;2213;49.720;7.296;2023-11-21T13:09:40;98001.00;;;10.38;100.00
4398;BME280;2213;49.720;7.296;2023-11-21T13:12:09;98007.34;;;10.50;100.00
4398;BME280;2213;49.720;7.296;2023-11-21T13:14:40;98005.13;;;10.47;100.00
4398;BME280;2213;49.720;7.296;2023-11-21T13:17:11;98015.69;;;10.39;100.00
4398;BME280;2213;49.720;7.296;2023-11-21T13:19:40;98020.25;;;10.31;100.00
4398;BME280;2213;49.720;7.296;2023-11-21T13:22:09;98023.16;;;10.42;100.00
4398;BME280;2213;49.720;7.296;2023-11-21T13:24:38;98020.78;;;10.47;100.00
4398;BME280;2213;49.720;7.296;2023-11-21T13:27:07;98028.19;;;10.44;100.00
4398;BME280;2213;49.720;7.296;2023-11-21T13:29:37;98028.00;;;10.45;100.00
4398;BME280;2213;49.720;7.296;2023-11-21T13:32:07;98023.59;;;10.46;100.00
4398;BME280;2213;49.720;7.296;2023-11-21T13:34:40;98029.63;;;10.46;100.00
4398;BME280;2213;49.720;7.296;2023-11-21T13:37:12;98029.44;;;10.48;100.00